Time;durP1;ratioP1;P1;durP2;ratioP2;P2;SDS_P1;SDS_P2;PMS_P1;PMS_P2;Temp;Humidity;BMP_temperature;BMP_pressure;BME280_temperature;BME280_humidity;BME280_pressure;Samples;Min_cycle;Max_cycle;Signal;HPM_P1;HPM_P2
2021/10/05 00:55:52;;;;;;;7.28;5.40;;;11.50;99.90;;;;;;5695393;25;20251;-84
2021/10/05 00:58:20;;;;;;;7.10;5.30;;;11.60;99.90;;;;;;5858946;24;20204;-84
2021/10/05 01:01:34;;;;;;;8.30;6.15;;;11.50;99.90;;;;;;6009017;23;20174;-84
2021/10/05 01:07:00;;;;;;;7.75;6.10;;;11.50;99.90;;;;;;6132128;23;20192;-84
2021/10/05 01:09:38;;;;;;;7.65;6.15;;;11.40;99.90;;;;;;6133277;23;20184;-83
2021/10/05 01:15:49;;;;;;;7.50;6.40;;;11.40;99.90;;;;;;6123546;23;20229;-83
2021/10/05 01:18:33;;;;;;;7.70;5.10;;;11.40;99.90;;;;;;6128873;23;20225;-84
2021/10/05 01:24:08;;;;;;;7.70;5.90;;;11.40;99.90;;;;;;6195444;23;20262;-84
2021/10/05 01:26:43;;;;;;;7.35;6.75;;;11.40;99.90;;;;;;6197664;23;20213;-84
2021/10/05 01:29:32;;;;;;;6.03;5.35;;;11.30;99.90;;;;;;6174109;23;20203;-83
2021/10/05 01:32:02;;;;;;;9.93;6.25;;;11.40;99.90;;;;;;6200508;23;20190;-85
2021/10/05 01:34:32;;;;;;;6.97;6.25;;;11.40;99.90;;;;;;6200276;23;20566;-84
2021/10/05 01:37:15;;;;;;;8.65;6.88;;;11.40;99.90;;;;;;6201448;23;20244;-84
2021/10/05 01:56:02;;;;;;;8.15;7.25;;;11.30;99.90;;;;;;6152005;23;20198;-83
2021/10/05 01:58:33;;;;;;;7.43;6.72;;;11.30;99.90;;;;;;6151108;23;20214;-82
2021/10/05 02:03:54;;;;;;;8.90;7.22;;;11.30;99.90;;;;;;6187775;23;20184;-82
2021/10/05 02:06:26;;;;;;;8.85;7.38;;;11.30;99.90;;;;;;6213716;23;20180;-84
2021/10/05 05:00:34;;;;;;;14.32;11.35;;;11.10;99.90;;;;;;5697788;24;20287;-83
2021/10/05 05:51:13;;;;;;;12.77;10.18;;;11.00;99.90;;;;;;5932358;24;20192;-85
2021/10/05 05:54:23;;;;;;;10.43;9.05;;;11.00;99.90;;;;;;5939201;24;20182;-84
2021/10/05 08:49:02;;;;;;;7.57;6.75;;;14.30;99.90;;;;;;5879412;24;20423;-85
2021/10/05 10:06:23;;;;;;;5.80;5.18;;;15.40;99.90;;;;;;5866206;24;20177;-84
2021/10/05 10:08:54;;;;;;;4.72;3.70;;;15.30;99.90;;;;;;5924062;23;20189;-85
2021/10/05 10:11:21;;;;;;;5.30;3.75;;;15.20;99.90;;;;;;6030007;23;20176;-84
2021/10/05 10:13:50;;;;;;;4.22;3.53;;;15.30;99.90;;;;;;6106804;23;20214;-83
2021/10/05 10:16:18;;;;;;;4.00;3.65;;;15.30;99.90;;;;;;6122189;23;20162;-84
2021/10/05 10:18:53;;;;;;;7.60;4.20;;;15.40;99.90;;;;;;6121341;23;20259;-83
2021/10/05 10:21:27;;;;;;;4.60;3.75;;;15.70;99.90;;;;;;6121996;23;20246;-83
2021/10/05 10:24:10;;;;;;;3.97;3.30;;;15.90;99.90;;;;;;6122071;23;20152;-84
2021/10/05 10:26:41;;;;;;;3.85;3.42;;;16.10;99.90;;;;;;6160163;23;20178;-84
2021/10/05 10:29:10;;;;;;;8.47;5.23;;;16.20;99.90;;;;;;6212659;23;20190;-84
2021/10/05 10:31:39;;;;;;;3.70;3.40;;;16.10;99.90;;;;;;6212382;23;20459;-84
2021/10/05 10:34:07;;;;;;;4.40;3.97;;;16.20;99.90;;;;;;6211742;23;20250;-84
2021/10/05 10:36:39;;;;;;;4.67;4.17;;;16.20;99.90;;;;;;6211646;23;20423;-84
2021/10/05 10:39:13;;;;;;;3.28;2.97;;;16.40;99.90;;;;;;6209049;23;20429;-85
2021/10/05 10:41:42;;;;;;;3.73;3.40;;;16.60;99.90;;;;;;6199144;23;20590;-85
2021/10/05 10:44:12;;;;;;;4.18;2.72;;;16.60;99.90;;;;;;6200526;23;20403;-85
2021/10/05 10:46:41;;;;;;;3.97;3.38;;;16.60;99.90;;;;;;6196880;23;20199;-85
2021/10/05 10:49:14;;;;;;;5.63;4.00;;;16.90;99.90;;;;;;6201431;23;20211;-84
2021/10/05 10:51:44;;;;;;;4.37;3.97;;;17.00;99.90;;;;;;6196862;23;20402;-85
2021/10/05 10:54:15;;;;;;;6.33;3.90;;;17.10;99.90;;;;;;6195633;23;20454;-86
2021/10/05 10:56:44;;;;;;;3.77;3.37;;;17.40;99.90;;;;;;6199686;23;20430;-85
2021/10/05 10:59:13;;;;;;;4.53;3.23;;;17.60;99.90;;;;;;6202223;23;20430;-84
2021/10/05 11:01:45;;;;;;;8.33;3.50;;;17.60;99.90;;;;;;6180722;23;20472;-85
2021/10/05 11:04:14;;;;;;;3.70;2.73;;;17.90;99.90;;;;;;6179983;23;20404;-84
2021/10/05 11:06:47;;;;;;;6.33;3.00;;;18.00;99.90;;;;;;6178345;23;20412;-84
2021/10/05 11:09:16;;;;;;;3.83;2.93;;;17.90;99.90;;;;;;6173197;23;20433;-86
2021/10/05 11:11:45;;;;;;;3.87;3.30;;;17.90;99.90;;;;;;6171344;23;20745;-85
2021/10/05 11:14:14;;;;;;;3.50;2.97;;;17.60;99.90;;;;;;6172421;23;20571;-84
2021/10/05 11:16:43;;;;;;;5.33;4.30;;;17.50;99.90;;;;;;6173914;23;20415;-84
2021/10/05 11:19:16;;;;;;;4.83;3.47;;;17.30;99.90;;;;;;6173506;23;20444;-85
2021/10/05 11:21:45;;;;;;;4.43;3.70;;;17.20;99.90;;;;;;6173345;23;20450;-86
2021/10/05 11:24:14;;;;;;;3.90;2.77;;;17.00;99.90;;;;;;6171833;23;20413;-86
2021/10/05 11:26:45;;;;;;;2.50;2.17;;;17.10;99.90;;;;;;6172627;23;20475;-85
2021/10/05 11:29:21;;;;;;;5.73;2.90;;;17.10;99.90;;;;;;6170298;23;20419;-85
2021/10/05 11:31:50;;;;;;;5.20;3.40;;;17.20;99.90;;;;;;6169822;23;20409;-86
2021/10/05 11:34:19;;;;;;;3.70;2.80;;;17.20;99.90;;;;;;6168509;23;20477;-85
2021/10/05 11:36:47;;;;;;;4.20;2.23;;;17.30;99.90;;;;;;6169108;23;20453;-86
2021/10/05 11:39:21;;;;;;;2.80;2.17;;;17.10;99.90;;;;;;6170473;23;20522;-84
2021/10/05 11:41:53;;;;;;;2.13;1.93;;;17.20;99.90;;;;;;6171283;23;20400;-85
2021/10/05 11:44:22;;;;;;;2.63;2.43;;;17.20;99.90;;;;;;6170076;23;20398;-85
2021/10/05 11:46:55;;;;;;;2.00;1.80;;;17.10;99.90;;;;;;6170763;23;20438;-83
2021/10/05 11:49:24;;;;;;;3.20;2.47;;;17.00;99.90;;;;;;6171444;23;20455;-84
2021/10/05 11:51:54;;;;;;;2.70;2.10;;;17.00;99.90;;;;;;6173894;23;20990;-84
2021/10/05 11:54:24;;;;;;;2.40;1.80;;;17.00;99.90;;;;;;6171914;23;20470;-85
2021/10/05 11:56:54;;;;;;;3.37;1.73;;;17.10;99.90;;;;;;6173463;23;20902;-85
2021/10/05 11:59:27;;;;;;;5.23;2.30;;;17.10;99.90;;;;;;6172551;23;20520;-85
2021/10/05 12:01:59;;;;;;;4.57;1.83;;;17.20;99.90;;;;;;6174397;23;20406;-84
2021/10/05 12:04:28;;;;;;;1.77;1.60;;;17.00;99.90;;;;;;6172874;23;20417;-84
2021/10/05 12:07:00;;;;;;;2.10;1.90;;;16.80;99.90;;;;;;6174532;23;20479;-85
2021/10/05 12:09:29;;;;;;;3.40;2.40;;;16.90;99.90;;;;;;6173188;23;20459;-85
2021/10/05 12:12:04;;;;;;;2.80;1.87;;;17.00;99.90;;;;;;6169541;23;20427;-85
2021/10/05 12:14:34;;;;;;;2.63;1.83;;;17.10;99.90;;;;;;6169688;23;20947;-84
2021/10/05 12:17:03;;;;;;;1.40;1.30;;;17.00;99.90;;;;;;6168905;23;20400;-85
2021/10/05 12:19:33;;;;;;;2.00;1.80;;;17.00;99.90;;;;;;6169528;23;20173;-84
2021/10/05 12:22:02;;;;;;;4.60;2.20;;;17.10;99.90;;;;;;6174179;23;20421;-86
2021/10/05 12:24:46;;;;;;;1.80;1.60;;;17.20;99.90;;;;;;6170773;23;20400;-86
2021/10/05 12:27:19;;;;;;;2.97;2.33;;;17.10;99.90;;;;;;6172668;23;20400;-84
2021/10/05 12:29:51;;;;;;;2.23;1.40;;;17.10;99.90;;;;;;6171866;23;20410;-84
2021/10/05 12:32:18;;;;;;;3.20;2.23;;;17.10;99.90;;;;;;6172228;23;20483;-84
2021/10/05 12:34:51;;;;;;;1.67;1.57;;;17.10;99.90;;;;;;6172263;23;20444;-84
2021/10/05 12:37:19;;;;;;;2.00;1.70;;;17.00;99.90;;;;;;6173102;23;20412;-85
2021/10/05 12:40:01;;;;;;;3.50;1.77;;;17.20;99.90;;;;;;6169393;23;20424;-84
2021/10/05 12:42:47;;;;;;;5.90;2.00;;;17.20;99.90;;;;;;6168360;23;20404;-85
2021/10/05 12:45:18;;;;;;;2.45;1.95;;;17.30;99.90;;;;;;6167502;23;20492;-86
2021/10/05 12:47:57;;;;;;;2.85;2.10;;;17.30;99.90;;;;;;6169689;23;20664;-86
2021/10/05 12:50:25;;;;;;;5.73;3.90;;;17.30;99.90;;;;;;6170420;23;20195;-86
2021/10/05 12:52:55;;;;;;;6.67;3.80;;;17.30;99.90;;;;;;6173030;23;20437;-85
2021/10/05 12:55:22;;;;;;;3.00;2.43;;;17.00;99.90;;;;;;6174228;23;20435;-85
2021/10/05 12:57:51;;;;;;;2.07;1.80;;;17.20;99.90;;;;;;6173026;23;20435;-84
2021/10/05 13:00:19;;;;;;;5.63;2.13;;;17.20;99.90;;;;;;6173472;23;20499;-85
2021/10/05 13:02:47;;;;;;;4.10;2.07;;;17.10;99.90;;;;;;6173066;23;20474;-86
2021/10/05 13:05:15;;;;;;;6.60;4.47;;;17.20;99.90;;;;;;6172715;23;20436;-84
2021/10/05 13:07:43;;;;;;;11.23;6.20;;;17.30;99.90;;;;;;6171151;23;20459;-83
2021/10/05 13:10:11;;;;;;;25.00;12.53;;;17.30;99.90;;;;;;6173080;23;20404;-85
2021/10/05 13:12:38;;;;;;;1.70;1.50;;;17.40;99.90;;;;;;6175095;23;20459;-85
2021/10/05 13:15:08;;;;;;;6.90;3.43;;;17.40;99.90;;;;;;6173453;23;20482;-85
2021/10/05 13:17:36;;;;;;;3.97;2.80;;;17.40;99.90;;;;;;6175230;23;20436;-85
2021/10/05 13:20:05;;;;;;;3.50;2.70;;;17.50;99.90;;;;;;6172749;23;20443;-85
2021/10/05 13:22:33;;;;;;;2.73;2.13;;;17.60;99.90;;;;;;6171053;23;20401;-86
2021/10/05 13:25:00;;;;;;;9.90;4.83;;;17.50;99.90;;;;;;6172386;23;20431;-85
2021/10/05 13:27:27;;;;;;;6.47;4.43;;;17.50;99.90;;;;;;6169046;23;20511;-85
2021/10/05 13:29:55;;;;;;;5.80;4.10;;;17.60;99.90;;;;;;6171225;23;20400;-84
2021/10/05 13:32:23;;;;;;;21.47;10.23;;;17.50;99.90;;;;;;6175513;23;20409;-84
2021/10/05 13:34:50;;;;;;;7.53;4.67;;;17.40;99.90;;;;;;6182472;23;20443;-84
2021/10/05 13:37:18;;;;;;;9.60;6.73;;;17.20;99.90;;;;;;6182830;23;20411;-83
2021/10/05 13:39:45;;;;;;;7.30;5.30;;;17.10;99.90;;;;;;6182910;23;20416;-83
2021/10/05 13:42:13;;;;;;;4.00;3.67;;;17.10;99.90;;;;;;6182723;23;20405;-84
2021/10/05 13:44:40;;;;;;;4.60;2.20;;;17.20;99.90;;;;;;6182704;23;20393;-83
2021/10/05 13:47:07;;;;;;;2.87;2.57;;;17.30;99.90;;;;;;6182387;23;20447;-83
2021/10/05 13:49:35;;;;;;;1.43;1.27;;;17.50;99.90;;;;;;6182701;23;20392;-84
2021/10/05 13:52:03;;;;;;;1.30;1.20;;;17.60;99.90;;;;;;6177363;23;20432;-85
2021/10/05 13:54:30;;;;;;;2.23;1.40;;;17.70;99.90;;;;;;6172865;23;20430;-85
2021/10/05 13:56:57;;;;;;;1.37;1.27;;;17.80;99.90;;;;;;6173361;23;20413;-85
2021/10/05 13:59:24;;;;;;;2.20;1.47;;;17.90;99.90;;;;;;6171262;23;20498;-85
2021/10/05 14:01:51;;;;;;;1.20;1.10;;;17.90;99.90;;;;;;6174303;23;20412;-83
2021/10/05 14:04:20;;;;;;;1.70;1.33;;;17.80;99.90;;;;;;6172097;23;20396;-85
2021/10/05 14:06:49;;;;;;;2.20;1.70;;;17.80;99.90;;;;;;6172154;23;20477;-84
2021/10/05 14:09:16;;;;;;;1.83;1.30;;;17.80;99.90;;;;;;6178658;23;20452;-83
2021/10/05 14:11:43;;;;;;;3.07;2.70;;;17.80;99.90;;;;;;6173668;23;20420;-84
2021/10/05 14:14:11;;;;;;;4.37;3.50;;;17.70;99.90;;;;;;6172623;23;20424;-85
2021/10/05 14:16:39;;;;;;;4.60;3.80;;;17.70;99.90;;;;;;6171505;23;20413;-85
2021/10/05 14:19:06;;;;;;;4.67;4.23;;;17.60;99.90;;;;;;6170153;23;20443;-84
2021/10/05 14:21:34;;;;;;;5.50;4.97;;;17.60;99.90;;;;;;6169908;23;20412;-85
2021/10/05 14:24:03;;;;;;;7.10;4.20;;;17.50;99.90;;;;;;6166897;23;20422;-85
2021/10/05 14:26:30;;;;;;;6.97;5.73;;;17.40;99.90;;;;;;6167641;23;20418;-84
2021/10/05 14:28:57;;;;;;;7.33;4.43;;;17.40;99.90;;;;;;6171013;23;20436;-84
2021/10/05 14:31:24;;;;;;;3.77;3.37;;;17.40;99.90;;;;;;6170575;23;20412;-84
2021/10/05 14:33:52;;;;;;;5.63;4.40;;;17.30;99.90;;;;;;6170974;23;20415;-85
2021/10/05 14:36:19;;;;;;;4.70;3.77;;;17.30;99.90;;;;;;6172696;23;20447;-84
2021/10/05 14:38:46;;;;;;;4.90;4.40;;;17.30;99.90;;;;;;6175301;23;20434;-84
2021/10/05 14:41:16;;;;;;;6.03;4.13;;;17.10;99.90;;;;;;6178739;23;20481;-84
2021/10/05 14:43:43;;;;;;;4.13;3.73;;;17.10;99.90;;;;;;6177544;23;20423;-85
2021/10/05 14:46:12;;;;;;;5.47;4.10;;;16.90;99.90;;;;;;6172569;23;20404;-84
2021/10/05 14:48:39;;;;;;;6.60;5.10;;;16.80;99.90;;;;;;6170312;23;20219;-83
2021/10/05 14:51:06;;;;;;;6.67;5.33;;;16.80;99.90;;;;;;6173179;23;20404;-85
2021/10/05 14:53:38;;;;;;;4.27;3.80;;;16.80;99.90;;;;;;6174997;23;20445;-84
2021/10/05 14:56:06;;;;;;;3.80;3.03;;;16.90;99.90;;;;;;6180186;23;20514;-84
2021/10/05 14:58:36;;;;;;;2.90;2.50;;;16.90;99.90;;;;;;6180797;23;20486;-85
2021/10/05 15:01:03;;;;;;;2.75;2.10;;;16.90;99.90;;;;;;6180710;23;20402;-84
2021/10/05 15:03:30;;;;;;;3.20;2.10;;;16.90;99.90;;;;;;6179855;23;20180;-85
2021/10/05 15:05:57;;;;;;;3.00;2.43;;;16.90;99.90;;;;;;6175848;23;20418;-85
2021/10/05 15:08:25;;;;;;;2.47;2.27;;;16.80;99.90;;;;;;6180174;23;20479;-85
2021/10/05 15:10:52;;;;;;;3.00;2.50;;;16.70;99.90;;;;;;6180853;23;20434;-84
2021/10/05 15:13:19;;;;;;;3.67;2.60;;;16.60;99.90;;;;;;6180673;23;20426;-85
2021/10/05 15:15:48;;;;;;;5.60;2.70;;;16.60;99.90;;;;;;6176544;23;20430;-83
2021/10/05 15:18:15;;;;;;;4.43;3.33;;;16.70;99.90;;;;;;6175325;23;20430;-85
2021/10/05 15:20:42;;;;;;;4.47;2.83;;;16.70;99.90;;;;;;6173721;23;20441;-85
2021/10/05 15:23:10;;;;;;;4.85;3.65;;;16.70;99.90;;;;;;6170519;23;20399;-85
2021/10/05 15:25:37;;;;;;;7.67;3.00;;;16.80;99.90;;;;;;6170727;23;20176;-85
2021/10/05 15:28:05;;;;;;;7.43;3.33;;;16.60;99.90;;;;;;6170998;23;20435;-85
2021/10/05 15:30:32;;;;;;;3.83;3.00;;;16.80;99.90;;;;;;6175407;23;20400;-84
2021/10/05 15:33:00;;;;;;;2.38;2.17;;;16.70;99.90;;;;;;6170893;23;20401;-84
2021/10/05 15:35:28;;;;;;;2.45;2.10;;;16.60;99.90;;;;;;6169616;23;20207;-85
2021/10/05 15:37:55;;;;;;;3.55;2.40;;;16.60;99.90;;;;;;6168820;23;20203;-84
2021/10/05 15:40:25;;;;;;;7.40;3.37;;;16.60;99.90;;;;;;6168882;23;20180;-84
2021/10/05 15:42:52;;;;;;;4.50;2.90;;;16.70;99.90;;;;;;6170239;23;20427;-84
2021/10/05 15:45:20;;;;;;;2.83;2.63;;;16.70;99.90;;;;;;6168818;23;20404;-84
2021/10/05 15:47:48;;;;;;;3.13;2.83;;;16.70;99.90;;;;;;6170021;23;20435;-85
2021/10/05 15:50:22;;;;;;;3.10;2.80;;;16.70;99.90;;;;;;6168523;23;20396;-85
2021/10/05 15:52:53;;;;;;;4.93;2.00;;;16.70;99.90;;;;;;6167512;23;20161;-83
2021/10/05 15:55:23;;;;;;;2.83;1.97;;;16.70;99.90;;;;;;6165896;23;20435;-83
2021/10/05 15:57:52;;;;;;;3.30;2.63;;;16.60;99.90;;;;;;6167296;23;20528;-84
2021/10/05 16:00:22;;;;;;;1.53;1.40;;;16.60;99.90;;;;;;6168186;23;20430;-83
2021/10/05 16:02:50;;;;;;;2.90;2.03;;;16.50;99.90;;;;;;6169134;23;20384;-84
2021/10/05 16:05:19;;;;;;;3.13;1.67;;;16.50;99.90;;;;;;6168202;23;20487;-84
2021/10/05 16:07:47;;;;;;;2.20;1.60;;;16.50;99.90;;;;;;6167987;23;20922;-84
2021/10/05 16:10:16;;;;;;;5.07;2.53;;;16.40;99.90;;;;;;6174038;23;20415;-82
2021/10/05 16:12:44;;;;;;;2.38;1.85;;;16.40;99.90;;;;;;6182193;23;20451;-83
2021/10/05 16:15:12;;;;;;;4.07;1.97;;;16.40;99.90;;;;;;6182775;23;20192;-81
2021/10/05 16:17:40;;;;;;;4.90;1.83;;;16.30;99.90;;;;;;6182798;23;20522;-83
2021/10/05 16:20:08;;;;;;;2.43;1.70;;;16.30;99.90;;;;;;6182809;23;20395;-83
2021/10/05 16:22:38;;;;;;;3.08;2.13;;;16.30;99.90;;;;;;6182604;23;20419;-83
2021/10/05 16:25:07;;;;;;;3.58;1.83;;;16.20;99.90;;;;;;6182645;23;20268;-81
2021/10/05 16:27:35;;;;;;;4.32;2.40;;;16.20;99.90;;;;;;6181457;23;20203;-84
2021/10/05 16:30:02;;;;;;;2.67;1.85;;;16.10;99.90;;;;;;6173451;23;20187;-84
2021/10/05 16:32:29;;;;;;;2.20;2.00;;;16.10;99.90;;;;;;6172991;23;20322;-83
2021/10/05 16:34:57;;;;;;;2.95;1.70;;;16.00;99.90;;;;;;6172313;23;20184;-83
2021/10/05 16:37:24;;;;;;;2.85;2.05;;;15.90;99.90;;;;;;6171096;23;20204;-83
2021/10/05 16:39:52;;;;;;;1.90;1.70;;;15.80;99.90;;;;;;6171939;23;20203;-85
2021/10/05 16:42:19;;;;;;;5.20;2.90;;;15.80;99.90;;;;;;6168466;23;20211;-84
2021/10/05 16:44:47;;;;;;;4.32;3.08;;;15.80;99.90;;;;;;6169050;23;20185;-84
2021/10/05 16:47:14;;;;;;;2.30;2.10;;;15.70;99.90;;;;;;6170998;23;20178;-84
2021/10/05 16:49:41;;;;;;;6.82;2.42;;;15.70;99.90;;;;;;6174410;23;20179;-85
2021/10/05 16:52:09;;;;;;;5.80;4.00;;;15.70;99.90;;;;;;6175689;23;20183;-85
2021/10/05 16:54:36;;;;;;;2.85;2.55;;;15.60;99.90;;;;;;6173192;23;20181;-84
2021/10/05 16:57:05;;;;;;;3.97;2.42;;;15.60;99.90;;;;;;6173154;23;20252;-84
2021/10/05 16:59:32;;;;;;;5.47;3.88;;;15.50;99.90;;;;;;6172732;23;20208;-83
2021/10/05 17:02:00;;;;;;;6.93;4.63;;;15.40;99.90;;;;;;6172435;23;20239;-84
2021/10/05 17:04:29;;;;;;;6.05;4.55;;;15.40;99.90;;;;;;6174439;23;20188;-84
2021/10/05 17:06:56;;;;;;;2.90;2.70;;;15.40;99.90;;;;;;6171876;23;20184;-84
2021/10/05 17:09:23;;;;;;;4.82;2.60;;;15.30;99.90;;;;;;6170891;23;20201;-85
2021/10/05 17:11:50;;;;;;;3.95;3.55;;;15.20;99.90;;;;;;6170740;23;20427;-84
2021/10/05 17:14:19;;;;;;;3.55;3.08;;;15.20;99.90;;;;;;6171291;23;20492;-84
2021/10/05 17:16:48;;;;;;;4.18;3.75;;;15.20;99.90;;;;;;6171765;23;20647;-83
2021/10/05 17:19:15;;;;;;;4.18;3.10;;;15.10;99.90;;;;;;6172298;23;20229;-84
2021/10/05 17:21:42;;;;;;;5.15;3.30;;;15.10;99.90;;;;;;6169564;23;20237;-84
2021/10/05 17:24:09;;;;;;;3.00;2.70;;;15.10;99.90;;;;;;6167738;23;20216;-85
2021/10/05 17:26:36;;;;;;;2.47;2.10;;;15.00;99.90;;;;;;6166684;23;20184;-83
2021/10/05 17:29:06;;;;;;;4.68;4.07;;;14.90;99.90;;;;;;6165482;23;20212;-85
2021/10/05 17:31:36;;;;;;;3.55;3.25;;;14.90;99.90;;;;;;6166031;23;20215;-83
2021/10/05 17:34:06;;;;;;;5.18;4.15;;;14.90;99.90;;;;;;6163949;23;20208;-84
2021/10/05 17:36:34;;;;;;;3.70;3.40;;;14.90;99.90;;;;;;6174514;23;20209;-82
2021/10/05 17:39:01;;;;;;;3.70;3.20;;;14.90;99.90;;;;;;6181702;23;20236;-82
2021/10/05 17:41:28;;;;;;;3.10;2.80;;;14.80;99.90;;;;;;6182033;23;20209;-83
2021/10/05 17:43:56;;;;;;;3.85;3.47;;;14.70;99.90;;;;;;6182926;23;20200;-82
2021/10/05 17:46:24;;;;;;;3.70;3.33;;;14.70;99.90;;;;;;6183622;23;20172;-81
2021/10/05 17:48:53;;;;;;;4.85;4.40;;;14.70;99.90;;;;;;6182959;23;20233;-81
2021/10/05 17:51:21;;;;;;;5.40;3.72;;;14.70;99.90;;;;;;6183179;23;20185;-81
2021/10/05 17:53:48;;;;;;;4.70;4.30;;;14.60;99.90;;;;;;6183610;23;20209;-82
2021/10/05 17:56:17;;;;;;;6.25;5.65;;;14.60;99.90;;;;;;6183072;23;20244;-82
2021/10/05 17:58:44;;;;;;;9.40;5.72;;;14.50;99.90;;;;;;6183280;23;20228;-84
2021/10/05 18:01:12;;;;;;;5.55;4.35;;;14.50;99.90;;;;;;6182857;23;20169;-81
2021/10/05 18:03:40;;;;;;;7.47;4.43;;;14.50;99.90;;;;;;6182714;23;20176;-82
2021/10/05 18:06:09;;;;;;;5.63;5.03;;;14.50;99.90;;;;;;6182390;23;20196;-82
2021/10/05 18:08:36;;;;;;;5.00;4.35;;;14.50;99.90;;;;;;6182023;23;20173;-83
2021/10/05 18:11:03;;;;;;;4.25;3.83;;;14.50;99.90;;;;;;6179995;23;20177;-83
2021/10/05 18:13:30;;;;;;;4.55;4.15;;;14.50;99.90;;;;;;6174242;23;20172;-84
2021/10/05 18:15:58;;;;;;;6.47;5.00;;;14.60;99.90;;;;;;6175854;23;20220;-83
2021/10/05 18:18:25;;;;;;;4.75;4.30;;;14.60;99.90;;;;;;6177831;23;20205;-83
2021/10/05 18:20:52;;;;;;;4.55;4.05;;;14.60;99.90;;;;;;6173588;23;20260;-84
2021/10/05 18:23:20;;;;;;;6.75;5.30;;;14.60;99.90;;;;;;6173405;23;20210;-85
2021/10/05 18:25:47;;;;;;;5.90;5.30;;;14.60;99.90;;;;;;6170444;23;20177;-82
2021/10/05 18:28:15;;;;;;;4.82;4.40;;;14.60;99.90;;;;;;6166536;23;20977;-83
2021/10/05 18:30:42;;;;;;;7.50;5.05;;;14.70;99.90;;;;;;6167115;23;20216;-85
2021/10/05 18:33:09;;;;;;;5.28;4.72;;;14.70;99.90;;;;;;6164991;23;20256;-83
2021/10/05 18:35:36;;;;;;;4.60;4.20;;;14.70;99.90;;;;;;6165677;23;20189;-85
2021/10/05 18:38:05;;;;;;;5.13;4.60;;;14.70;99.90;;;;;;6164330;23;20193;-84
2021/10/05 18:40:33;;;;;;;5.50;4.88;;;14.70;99.90;;;;;;6166474;23;20184;-85
2021/10/05 18:43:01;;;;;;;5.38;4.35;;;14.70;99.90;;;;;;6165075;23;20181;-85
2021/10/05 18:45:29;;;;;;;5.80;5.20;;;14.70;99.90;;;;;;6166277;23;20217;-85
2021/10/05 18:47:57;;;;;;;6.00;4.30;;;14.70;99.90;;;;;;6167521;23;20255;-83
2021/10/05 18:50:25;;;;;;;6.03;4.60;;;14.70;99.90;;;;;;6166865;23;20177;-84
2021/10/05 18:52:52;;;;;;;6.38;4.97;;;14.60;99.90;;;;;;6167146;23;20240;-85
2021/10/05 18:55:19;;;;;;;4.47;4.07;;;14.60;99.90;;;;;;6165709;23;20579;-85
2021/10/05 18:57:48;;;;;;;6.97;6.32;;;14.60;99.90;;;;;;6165958;23;20191;-85
2021/10/05 19:00:16;;;;;;;7.85;6.70;;;14.60;99.90;;;;;;6167009;23;20192;-85
2021/10/05 19:02:44;;;;;;;5.65;5.15;;;14.60;99.90;;;;;;6166653;23;20184;-84
2021/10/05 19:05:11;;;;;;;5.55;5.03;;;14.60;99.90;;;;;;6166188;23;20177;-83
2021/10/05 19:07:41;;;;;;;5.97;4.90;;;14.60;99.90;;;;;;6166342;23;20674;-85
2021/10/05 19:10:10;;;;;;;11.13;5.38;;;14.60;99.90;;;;;;6166736;23;20176;-84
2021/10/05 19:12:37;;;;;;;4.35;4.05;;;14.70;99.90;;;;;;6174527;23;20217;-85
2021/10/05 19:15:07;;;;;;;5.78;5.18;;;14.60;99.90;;;;;;6176735;23;20176;-81
2021/10/05 19:17:34;;;;;;;5.00;4.50;;;14.70;99.90;;;;;;6178297;23;20607;-84
2021/10/05 19:20:03;;;;;;;5.55;4.55;;;14.80;99.90;;;;;;6176355;23;20184;-83
2021/10/05 19:22:30;;;;;;;6.70;4.22;;;14.80;99.90;;;;;;6168508;23;20220;-84
2021/10/05 19:24:57;;;;;;;5.05;4.65;;;14.80;99.90;;;;;;6168387;23;20216;-82
2021/10/05 19:27:24;;;;;;;5.47;4.95;;;14.90;99.90;;;;;;6167061;23;20183;-85
2021/10/05 19:29:52;;;;;;;5.38;4.85;;;14.90;99.90;;;;;;6165695;23;20280;-86
2021/10/05 19:32:20;;;;;;;6.97;5.05;;;14.90;99.90;;;;;;6170272;23;20197;-85
2021/10/05 19:34:47;;;;;;;5.90;5.05;;;14.90;99.90;;;;;;6166738;23;20184;-84
2021/10/05 19:37:15;;;;;;;8.13;4.85;;;14.90;99.90;;;;;;6167344;23;20216;-83
2021/10/05 19:39:42;;;;;;;6.30;4.35;;;14.90;99.90;;;;;;6168031;23;20201;-84
2021/10/05 19:42:09;;;;;;;6.28;5.68;;;14.90;99.90;;;;;;6170582;23;20179;-83
2021/10/05 19:44:36;;;;;;;6.10;5.53;;;14.70;99.90;;;;;;6170567;23;20257;-83
2021/10/05 19:47:04;;;;;;;6.22;5.63;;;14.70;99.90;;;;;;6166917;23;20683;-83
2021/10/05 19:49:32;;;;;;;6.40;5.70;;;14.60;99.90;;;;;;6165988;23;20225;-83
2021/10/05 19:51:59;;;;;;;5.68;5.13;;;14.60;99.90;;;;;;6169096;23;20180;-83
2021/10/05 19:54:26;;;;;;;7.03;6.32;;;14.40;99.90;;;;;;6176924;23;20179;-84
2021/10/05 19:56:54;;;;;;;7.03;6.32;;;14.50;99.90;;;;;;6176155;23;20240;-84
2021/10/05 19:59:21;;;;;;;5.78;5.22;;;14.60;99.90;;;;;;6176088;23;20188;-82
2021/10/05 20:01:49;;;;;;;5.88;5.25;;;14.50;99.90;;;;;;6179188;23;20192;-83
2021/10/05 20:04:16;;;;;;;6.82;6.13;;;14.60;99.90;;;;;;6177744;23;20196;-82
2021/10/05 20:06:44;;;;;;;6.93;6.07;;;14.60;99.90;;;;;;6178790;23;20260;-83
2021/10/05 20:09:12;;;;;;;6.93;6.32;;;14.70;99.90;;;;;;6181452;23;20197;-83
2021/10/05 20:11:39;;;;;;;6.78;6.18;;;14.70;99.90;;;;;;6181056;23;20232;-83
2021/10/05 20:14:06;;;;;;;6.70;5.78;;;14.70;99.90;;;;;;6180551;23;20177;-81
2021/10/05 20:16:34;;;;;;;5.32;4.82;;;14.70;99.90;;;;;;6178915;23;20228;-82
2021/10/05 20:19:01;;;;;;;9.43;6.25;;;14.80;99.90;;;;;;6178724;23;20232;-84
2021/10/05 20:21:28;;;;;;;5.70;5.30;;;14.90;99.90;;;;;;6177722;23;20181;-83
2021/10/05 20:23:57;;;;;;;6.10;5.47;;;14.90;99.90;;;;;;6179224;23;20221;-83
2021/10/05 20:26:24;;;;;;;9.73;5.25;;;14.90;99.90;;;;;;6178480;23;20173;-84
2021/10/05 20:28:51;;;;;;;8.77;6.07;;;14.90;99.90;;;;;;6181946;23;20245;-83
2021/10/05 20:31:20;;;;;;;7.60;6.45;;;14.90;99.90;;;;;;6183413;23;20162;-82
2021/10/05 20:33:48;;;;;;;8.32;6.65;;;14.90;99.90;;;;;;6182907;23;20217;-82
2021/10/05 20:36:15;;;;;;;5.95;5.28;;;14.90;99.90;;;;;;6182590;23;20248;-83
2021/10/05 20:38:43;;;;;;;7.28;6.55;;;14.90;99.90;;;;;;6182670;23;20197;-82
2021/10/05 20:41:12;;;;;;;6.18;5.68;;;15.00;99.90;;;;;;6182743;23;20193;-82
2021/10/05 20:43:40;;;;;;;7.55;5.85;;;15.00;99.90;;;;;;6183230;23;20165;-81
2021/10/05 20:46:07;;;;;;;7.70;6.20;;;14.90;99.90;;;;;;6183351;23;20161;-83
2021/10/05 20:48:35;;;;;;;7.55;6.85;;;15.00;99.90;;;;;;6180860;23;20181;-84
2021/10/05 20:51:02;;;;;;;5.85;5.35;;;14.90;99.90;;;;;;6177765;23;20551;-83
2021/10/05 20:53:30;;;;;;;5.50;5.00;;;14.90;99.90;;;;;;6179710;23;20212;-83
2021/10/05 20:55:57;;;;;;;5.78;5.28;;;14.90;99.90;;;;;;6179850;23;20232;-85
2021/10/05 20:58:26;;;;;;;5.15;4.65;;;14.90;99.90;;;;;;6179353;23;20241;-85
2021/10/05 21:00:53;;;;;;;5.43;4.93;;;14.90;99.90;;;;;;6178078;23;20253;-83
2021/10/05 21:03:20;;;;;;;6.82;6.15;;;14.90;99.90;;;;;;6179311;23;20161;-82
2021/10/05 21:05:47;;;;;;;15.18;6.40;;;14.90;99.90;;;;;;6178902;23;20244;-83
2021/10/05 21:08:14;;;;;;;6.68;5.97;;;14.80;99.90;;;;;;6177755;23;20641;-83
2021/10/05 21:10:41;;;;;;;6.50;5.72;;;14.70;99.90;;;;;;6177125;23;20181;-83
2021/10/05 21:13:08;;;;;;;15.10;7.18;;;14.70;99.90;;;;;;6178472;23;20188;-83
2021/10/05 21:15:37;;;;;;;6.70;5.97;;;14.70;99.90;;;;;;6176926;23;20224;-84
2021/10/05 21:18:04;;;;;;;7.32;6.32;;;14.70;99.90;;;;;;6176405;23;20280;-83
2021/10/05 21:20:32;;;;;;;8.23;6.88;;;14.70;99.90;;;;;;6177502;23;20172;-84
2021/10/05 21:22:59;;;;;;;5.60;5.10;;;14.80;99.90;;;;;;6176086;23;20181;-83
2021/10/05 21:25:26;;;;;;;6.07;5.43;;;14.70;99.90;;;;;;6176183;23;20232;-83
2021/10/05 21:27:53;;;;;;;7.50;6.15;;;14.70;99.90;;;;;;6176182;23;20198;-84
2021/10/05 21:30:21;;;;;;;8.20;6.03;;;14.70;99.90;;;;;;6176863;23;20184;-83
2021/10/05 21:32:49;;;;;;;6.30;5.70;;;14.70;99.90;;;;;;6177059;23;20176;-83
2021/10/05 21:35:17;;;;;;;7.30;6.65;;;14.70;99.90;;;;;;6177302;23;20197;-83
2021/10/05 21:37:44;;;;;;;6.18;5.60;;;14.60;99.90;;;;;;6176573;23;20236;-83
2021/10/05 21:40:13;;;;;;;8.30;6.80;;;14.60;99.90;;;;;;6175965;23;20232;-83
2021/10/05 21:42:40;;;;;;;7.22;6.53;;;14.50;99.90;;;;;;6175540;23;20171;-82
2021/10/05 21:45:11;;;;;;;7.20;6.45;;;14.50;99.90;;;;;;6176458;23;20220;-82
2021/10/05 21:47:39;;;;;;;8.13;6.28;;;14.50;99.90;;;;;;6177918;23;20197;-83
2021/10/05 21:50:10;;;;;;;10.57;6.38;;;14.40;99.90;;;;;;6175606;23;20181;-84
2021/10/05 21:52:37;;;;;;;7.32;6.72;;;14.50;99.90;;;;;;6176331;23;20179;-83
2021/10/05 21:55:05;;;;;;;6.68;5.28;;;14.40;99.90;;;;;;6178182;23;20208;-83
2021/10/05 21:57:32;;;;;;;9.25;6.60;;;14.40;99.90;;;;;;6177858;23;20264;-83
2021/10/05 21:59:59;;;;;;;7.80;5.63;;;14.40;99.90;;;;;;6177850;23;20699;-83
2021/10/05 22:02:27;;;;;;;6.45;5.60;;;14.40;99.90;;;;;;6176020;23;20180;-83
2021/10/05 22:04:54;;;;;;;6.05;5.45;;;14.50;99.90;;;;;;6174842;23;20237;-83